Hauptseite
METAR-TAF:

METAR-TAF

Flughäfen :

Flughafen Dundee

Dundee, Schottland

Breite: 56-27N, Länge: 003-01W, Höhe: 4 m

Beobachtung

Neuester Wetterbericht von vor 8 Stunden und 46 Minuten, um 19:20 UTC
Wind 31 kt aus West
Temperatur 11°C
Luftfeuchtigkeit 76%
Luftdruck 1025 hPa
Sichtweite 10 km oder mehr
Leicht bewölkt in der Höhe von 3500 ft

METAR: EGPN 221920Z 26031KT 9999 FEW035 11/07 Q1025

Zeit: 05:06 (04:06 UTC)

Prognose

Neuester Wetterbericht von vor 11 Stunden und 3 Minuten, um 17:03 UTC
Gültige Prognose vom 22 um 18 UTC bis 22 um 20 UTC
Wind 25 kt aus West/Südwest, Böen bis zu 35 kt
Sichtweite 10 km oder mehr
Aufgelockert bewölkt in der Höhe von 2500 ft

TAF: EGPN 221703Z 2218/2220 25025G35KT 9999 SCT025

Wetterbeobachtungen und Prognosen von mehr als 4000 Flughäfen (METAR und TAF Bericht).

Die verfügbaren Stationen werden durch gelbe und rote Markierungen auf der Karte dargestellt.

Führen Sie die Maus auf sie, um den Namen der Station zu sehen.

Darauf klicken, um die Beobachtung von Wetterbeobachtungen und Prognosen zu sehen.

Um die Karte zu ändern : klicken Sie auf den grünen Tasten mit einem schwarzen Kreuz Zum Vergrößern, auf den grünen Button mit einem Gedankenstrich zu verkleinern, oder auf die grünen Pfeile für benachbarte Karten.


METAR-TAF: